Time;durP1;ratioP1;P1;durP2;ratioP2;P2;SDS_P1;SDS_P2;PMS_P1;PMS_P2;Temp;Humidity;BMP_temperature;BMP_pressure;BME280_temperature;BME280_humidity;BME280_pressure;Samples;Min_cycle;Max_cycle;Signal;HPM_P1;HPM_P2
2023/08/23 00:00:51;;;;;;;;;;;;;;;15.56;67.89;101501.71;108547;1264;59285;-79
2023/08/23 00:03:34;;;;;;;;;;;;;;;15.55;67.93;101500.10;108472;1264;126280;-79
2023/08/23 00:06:00;;;;;;;;;;;;;;;15.55;67.95;101491.42;108683;1264;58990;-78
2023/08/23 00:08:27;;;;;;;;;;;;;;;15.53;68.08;101496.00;108571;1265;126082;-78
2023/08/23 00:10:54;;;;;;;;;;;;;;;15.52;68.15;101495.29;108541;1264;64818;-78
2023/08/23 00:13:21;;;;;;;;;;;;;;;15.51;68.14;101499.87;108524;1264;71558;-78
2023/08/23 00:15:48;;;;;;;;;;;;;;;15.49;68.21;101499.13;108373;1263;125098;-78
2023/08/23 00:18:14;;;;;;;;;;;;;;;15.47;68.31;101498.38;108571;1264;58952;-78
2023/08/23 00:20:41;;;;;;;;;;;;;;;15.46;68.26;101497.13;108523;1265;125016;-78
2023/08/23 00:23:07;;;;;;;;;;;;;;;15.44;68.38;101497.27;108626;1265;59037;-78
2023/08/23 00:25:34;;;;;;;;;;;;;;;15.43;68.41;101497.77;108599;1264;59587;-78
2023/08/23 00:28:00;;;;;;;;;;;;;;;15.42;68.53;101497.59;108519;1266;124738;-78
2023/08/23 00:30:26;;;;;;;;;;;;;;;15.43;68.57;101502.02;108659;1265;59056;-78
2023/08/23 00:32:53;;;;;;;;;;;;;;;15.43;68.68;101502.91;108575;1267;124893;-78
2023/08/23 00:35:20;;;;;;;;;;;;;;;15.44;68.63;101500.97;108620;1263;59144;-78
2023/08/23 00:37:46;;;;;;;;;;;;;;;15.43;68.68;101499.91;108474;1265;59493;-78
2023/08/23 00:40:12;;;;;;;;;;;;;;;15.42;68.60;101496.88;108573;1264;125088;-79
2023/08/23 00:42:39;;;;;;;;;;;;;;;15.41;68.76;101496.70;108548;1265;59323;-78
2023/08/23 00:45:06;;;;;;;;;;;;;;;15.40;68.88;101492.41;108440;1263;125055;-78
2023/08/23 00:47:33;;;;;;;;;;;;;;;15.39;68.90;101492.58;108546;1262;66096;-79
2023/08/23 00:49:59;;;;;;;;;;;;;;;15.37;68.97;101492.54;108637;1267;72557;-79
2023/08/23 00:52:27;;;;;;;;;;;;;;;15.36;68.98;101491.48;108312;1263;125745;-78
2023/08/23 00:54:54;;;;;;;;;;;;;;;15.35;68.99;101488.98;108641;1264;59072;-78
2023/08/23 00:57:20;;;;;;;;;;;;;;;15.35;69.08;101485.62;108424;1264;125068;-79
2023/08/23 00:59:47;;;;;;;;;;;;;;;15.35;69.13;101488.80;108668;1264;64975;-80
2023/08/23 01:02:13;;;;;;;;;;;;;;;15.34;69.11;101489.50;108546;1265;124882;-79
2023/08/23 01:04:40;;;;;;;;;;;;;;;15.31;69.14;101494.05;108553;1263;59117;-79
2023/08/23 01:07:11;;;;;;;;;;;;;;;15.28;69.17;101492.92;108529;1264;59105;-79
2023/08/23 01:09:38;;;;;;;;;;;;;;;15.26;69.28;101494.64;108504;1263;124992;-78
2023/08/23 01:12:04;;;;;;;;;;;;;;;15.24;69.35;101497.27;108678;1265;58964;-78
2023/08/23 01:14:33;;;;;;;;;;;;;;;15.22;69.42;101491.94;108532;1264;125162;-78
2023/08/23 01:17:00;;;;;;;;;;;;;;;15.19;69.51;101492.41;108606;1264;58942;-79
2023/08/23 01:19:26;;;;;;;;;;;;;;;15.17;69.49;101491.66;108626;1263;59902;-79
2023/08/23 01:21:53;;;;;;;;;;;;;;;15.14;69.56;101491.62;108552;1265;125242;-78
2023/08/23 01:24:19;;;;;;;;;;;;;;;15.13;69.63;101491.95;108450;1264;59083;-78
2023/08/23 01:26:46;;;;;;;;;;;;;;;15.11;69.71;101489.27;108551;1264;124916;-79
2023/08/23 01:29:12;;;;;;;;;;;;;;;15.09;69.74;101493.12;108651;1264;58951;-79
2023/08/23 01:31:39;;;;;;;;;;;;;;;15.07;69.86;101493.95;108676;1263;59010;-79
2023/08/23 01:34:10;;;;;;;;;;;;;;;15.05;69.88;101492.86;108447;1264;124031;-79
2023/08/23 01:36:37;;;;;;;;;;;;;;;15.04;69.98;101491.95;108614;1263;65968;-79
2023/08/23 01:39:03;;;;;;;;;;;;;;;15.01;70.00;101493.86;108598;1264;124150;-82
2023/08/23 01:41:30;;;;;;;;;;;;;;;15.00;70.11;101496.83;108678;1264;58976;-82
2023/08/23 01:43:56;;;;;;;;;;;;;;;14.99;70.18;101498.95;108556;1264;58945;-82
2023/08/23 01:46:23;;;;;;;;;;;;;;;14.96;70.18;101503.13;108436;1264;124556;-81
2023/08/23 01:48:49;;;;;;;;;;;;;;;14.93;70.16;101501.84;108685;1264;58901;-82
2023/08/23 01:51:16;;;;;;;;;;;;;;;14.91;70.19;101498.98;108572;1264;126127;-83
2023/08/23 01:53:42;;;;;;;;;;;;;;;14.89;70.27;101498.04;108655;1264;59017;-82
2023/08/23 01:56:09;;;;;;;;;;;;;;;14.87;70.31;101495.37;108580;1264;124333;-82
2023/08/23 01:58:35;;;;;;;;;;;;;;;14.85;70.37;101497.45;108668;1264;59687;-82
2023/08/23 02:01:02;;;;;;;;;;;;;;;14.83;70.36;101501.80;108680;1264;64795;-80
2023/08/23 02:03:28;;;;;;;;;;;;;;;14.80;70.47;101499.10;108593;1264;124260;-81
2023/08/23 02:05:55;;;;;;;;;;;;;;;14.77;70.45;101500.80;108717;1264;58991;-82
2023/08/23 02:08:22;;;;;;;;;;;;;;;14.74;70.53;101508.00;108479;1264;124411;-82
2023/08/23 02:10:48;;;;;;;;;;;;;;;14.70;70.60;101511.46;108536;1264;59687;-82
2023/08/23 02:13:15;;;;;;;;;;;;;;;14.67;70.70;101511.03;108547;1270;59016;-81
2023/08/23 02:15:43;;;;;;;;;;;;;;;14.64;70.81;101512.56;108419;1265;124213;-82
2023/08/23 02:18:09;;;;;;;;;;;;;;;14.61;70.95;101514.79;108673;1266;59122;-82
2023/08/23 02:20:35;;;;;;;;;;;;;;;14.57;70.99;101516.14;108579;1263;124193;-82
2023/08/23 02:23:02;;;;;;;;;;;;;;;14.55;71.14;101514.84;108661;1263;74631;-82
2023/08/23 02:25:28;;;;;;;;;;;;;;;14.53;71.10;101513.02;108692;1263;66208;-81
2023/08/23 02:27:57;;;;;;;;;;;;;;;14.50;71.33;101514.70;108450;1264;124182;-81
2023/08/23 02:30:23;;;;;;;;;;;;;;;14.47;71.43;101511.83;108592;1264;59092;-82
2023/08/23 02:32:50;;;;;;;;;;;;;;;14.45;71.53;101511.27;108600;1264;124998;-82
2023/08/23 02:35:16;;;;;;;;;;;;;;;14.44;71.66;101513.52;108692;1263;59717;-82
2023/08/23 02:37:43;;;;;;;;;;;;;;;14.44;71.82;101505.23;108696;1264;64887;-82
2023/08/23 02:40:09;;;;;;;;;;;;;;;14.45;71.90;101503.33;108431;1266;124993;-82
2023/08/23 02:42:36;;;;;;;;;;;;;;;14.47;71.98;101501.59;108671;1263;59195;-81
2023/08/23 02:45:02;;;;;;;;;;;;;;;14.49;72.13;101501.80;108580;1263;124918;-81
2023/08/23 02:47:29;;;;;;;;;;;;;;;14.51;72.16;101499.36;108688;1263;74375;-81
2023/08/23 02:49:55;;;;;;;;;;;;;;;14.54;72.20;101500.86;108671;1264;59078;-81
2023/08/23 02:52:22;;;;;;;;;;;;;;;14.57;72.26;101504.47;108523;1264;125760;-81
2023/08/23 02:54:48;;;;;;;;;;;;;;;14.60;72.24;101503.30;108569;1264;58913;-82
2023/08/23 02:57:15;;;;;;;;;;;;;;;14.63;72.28;101504.42;108615;1264;125321;-82
2023/08/23 02:59:41;;;;;;;;;;;;;;;14.67;72.35;101506.26;108671;1264;59360;-81
2023/08/23 03:02:08;;;;;;;;;;;;;;;14.70;72.26;101498.90;108565;1263;125268;-81
2023/08/23 03:04:34;;;;;;;;;;;;;;;14.72;72.27;101499.65;108643;1263;59075;-81
2023/08/23 03:07:01;;;;;;;;;;;;;;;14.74;72.29;101493.86;108667;1262;58997;-83
2023/08/23 03:09:27;;;;;;;;;;;;;;;14.74;72.21;101492.63;108571;1264;125345;-82
2023/08/23 03:11:53;;;;;;;;;;;;;;;14.75;72.35;101487.00;108655;1263;59156;-82
2023/08/23 03:14:20;;;;;;;;;;;;;;;14.76;72.28;101486.49;108417;1267;125095;-81
2023/08/23 03:16:46;;;;;;;;;;;;;;;14.77;72.31;101488.29;108564;1263;59103;-81
2023/08/23 03:19:13;;;;;;;;;;;;;;;14.79;72.37;101491.48;108627;1263;59024;-81
2023/08/23 03:21:39;;;;;;;;;;;;;;;14.80;72.37;101493.09;108570;1264;124766;-81
2023/08/23 03:24:06;;;;;;;;;;;;;;;14.81;72.42;101500.55;108668;1264;59023;-82
2023/08/23 03:26:32;;;;;;;;;;;;;;;14.82;72.46;101503.20;108559;1264;125901;-82
2023/08/23 03:28:59;;;;;;;;;;;;;;;14.83;72.48;101504.65;108538;1264;59118;-83
2023/08/23 03:31:25;;;;;;;;;;;;;;;14.85;72.52;101503.63;108648;1263;58951;-83
2023/08/23 03:33:52;;;;;;;;;;;;;;;14.87;72.59;101500.48;108580;1264;124855;-83
2023/08/23 03:36:18;;;;;;;;;;;;;;;14.89;72.67;101498.40;108696;1264;59268;-82
2023/08/23 03:38:45;;;;;;;;;;;;;;;14.90;72.66;101502.31;108590;1263;125730;-81
2023/08/23 03:41:12;;;;;;;;;;;;;;;14.92;72.69;101503.23;108699;1264;59027;-82
2023/08/23 03:43:39;;;;;;;;;;;;;;;14.94;72.76;101503.25;108583;1264;58939;-83
2023/08/23 03:46:05;;;;;;;;;;;;;;;14.96;72.76;101503.66;108585;1264;124038;-82
2023/08/23 03:48:32;;;;;;;;;;;;;;;14.97;72.84;101503.85;108606;1264;74758;-83
2023/08/23 03:50:59;;;;;;;;;;;;;;;15.00;72.81;101503.38;108478;1264;125009;-83
2023/08/23 03:53:26;;;;;;;;;;;;;;;15.03;72.93;101496.17;108650;1263;71196;-86
2023/08/23 03:55:53;;;;;;;;;;;;;;;15.05;72.94;101493.05;108592;1265;59050;-87
2023/08/23 03:58:20;;;;;;;;;;;;;;;15.11;73.10;101492.63;108468;1264;124783;-86
2023/08/23 04:00:51;;;;;;;;;;;;;;;15.45;73.87;101495.16;108585;1264;74604;-85
2023/08/23 04:03:18;;;;;;;;;;;;;;;16.09;74.05;101497.06;108406;1264;124274;-85
2023/08/23 04:05:44;;;;;;;;;;;;;;;16.76;73.56;101491.55;108572;1264;72750;-85
2023/08/23 04:08:11;;;;;;;;;;;;;;;17.44;72.99;101493.85;108561;1263;125060;-85
2023/08/23 04:10:38;;;;;;;;;;;;;;;18.09;72.08;101492.40;108503;1263;60022;-86
2023/08/23 04:13:05;;;;;;;;;;;;;;;18.70;71.17;101487.89;108624;1263;73464;-86
2023/08/23 04:15:31;;;;;;;;;;;;;;;19.30;70.36;101486.25;108399;1264;126547;-80
2023/08/23 04:17:57;;;;;;;;;;;;;;;19.90;69.35;101484.48;108659;1264;71082;-81
2023/08/23 04:20:24;;;;;;;;;;;;;;;20.51;68.41;101480.56;108565;1264;125958;-81
2023/08/23 04:22:50;;;;;;;;;;;;;;;20.60;66.52;101480.70;108652;1264;59056;-81
2023/08/23 04:25:17;;;;;;;;;;;;;;;20.41;65.85;101488.61;108641;1264;59321;-81
2023/08/23 04:27:43;;;;;;;;;;;;;;;20.48;65.95;101486.62;108570;1264;125487;-81
2023/08/23 04:30:10;;;;;;;;;;;;;;;20.73;65.64;101484.73;108686;1263;71493;-81
2023/08/23 04:32:37;;;;;;;;;;;;;;;20.90;64.95;101487.34;108575;1263;124366;-82
2023/08/23 04:35:04;;;;;;;;;;;;;;;21.40;65.37;101483.58;108622;1263;59155;-82
2023/08/23 04:37:30;;;;;;;;;;;;;;;22.28;64.65;101479.89;108664;1264;73308;-83
2023/08/23 04:39:57;;;;;;;;;;;;;;;23.23;63.96;101479.86;108566;1264;126002;-81
2023/08/23 04:42:23;;;;;;;;;;;;;;;24.22;62.60;101475.80;108540;1264;59022;-81
2023/08/23 04:44:50;;;;;;;;;;;;;;;25.14;61.40;101477.59;108505;1264;124369;-82
2023/08/23 04:47:16;;;;;;;;;;;;;;;25.98;59.95;101480.14;108651;1267;60457;-81
2023/08/23 04:49:43;;;;;;;;;;;;;;;26.83;58.73;101479.29;108520;1267;59710;-81
2023/08/23 04:52:09;;;;;;;;;;;;;;;27.70;57.53;101478.45;108547;1267;124256;-81
2023/08/23 04:54:36;;;;;;;;;;;;;;;28.56;56.04;101475.52;108507;1264;74646;-81
2023/08/23 04:57:04;;;;;;;;;;;;;;;29.32;54.81;101481.00;108563;1264;124872;-81
2023/08/23 04:59:30;;;;;;;;;;;;;;;30.13;53.61;101483.31;108648;1264;59115;-81
2023/08/23 05:01:57;;;;;;;;;;;;;;;30.84;52.22;101481.09;108642;1263;59694;-81
2023/08/23 05:04:23;;;;;;;;;;;;;;;31.48;50.94;101481.23;108562;1263;126045;-81
2023/08/23 05:06:50;;;;;;;;;;;;;;;31.97;49.43;101479.82;108549;1263;62451;-81
2023/08/23 05:09:16;;;;;;;;;;;;;;;32.36;48.36;101481.14;108575;1263;124006;-78
2023/08/23 05:11:43;;;;;;;;;;;;;;;32.79;47.38;101486.45;108530;1263;59099;-77
2023/08/23 05:14:09;;;;;;;;;;;;;;;33.21;46.65;101490.77;108517;1264;125136;-78
2023/08/23 05:16:36;;;;;;;;;;;;;;;33.57;45.34;101492.11;108624;1264;59473;-78
2023/08/23 05:19:03;;;;;;;;;;;;;;;33.77;44.52;101490.38;108512;1264;63795;-78
2023/08/23 05:21:29;;;;;;;;;;;;;;;33.72;43.75;101495.05;108564;1264;124128;-79
2023/08/23 05:23:56;;;;;;;;;;;;;;;32.96;42.91;101495.06;108549;1263;58941;-78
2023/08/23 05:26:22;;;;;;;;;;;;;;;31.82;42.44;101496.33;108493;1263;124396;-78
2023/08/23 05:28:49;;;;;;;;;;;;;;;30.53;42.66;101498.64;108605;1264;58990;-79
2023/08/23 05:31:15;;;;;;;;;;;;;;;29.38;43.19;101502.45;108648;1263;59128;-81
2023/08/23 05:33:42;;;;;;;;;;;;;;;28.36;44.01;101504.59;108530;1264;124240;-78
2023/08/23 05:36:09;;;;;;;;;;;;;;;27.55;44.77;101505.84;108689;1263;60300;-79
2023/08/23 05:38:35;;;;;;;;;;;;;;;26.81;45.43;101514.48;108533;1263;125338;-79
2023/08/23 05:41:02;;;;;;;;;;;;;;;26.15;46.22;101523.21;108564;1263;64975;-78
2023/08/23 05:43:28;;;;;;;;;;;;;;;25.58;47.01;101522.36;108543;1264;71805;-80
2023/08/23 05:45:56;;;;;;;;;;;;;;;25.11;47.66;101525.79;108440;1264;124200;-78
2023/08/23 05:48:25;;;;;;;;;;;;;;;24.78;48.35;101519.17;108670;1263;60323;-79
2023/08/23 05:51:02;;;;;;;;;;;;;;;24.44;49.12;101516.98;108289;1264;124268;-78
2023/08/23 05:53:29;;;;;;;;;;;;;;;24.15;49.53;101523.81;108609;1264;65174;-80
2023/08/23 05:55:55;;;;;;;;;;;;;;;23.87;50.07;101524.88;108593;1264;71442;-80
2023/08/23 05:58:21;;;;;;;;;;;;;;;23.66;50.58;101521.82;108344;1264;123812;-80
2023/08/23 06:00:48;;;;;;;;;;;;;;;23.42;51.07;101515.95;108628;1264;58993;-80
2023/08/23 06:03:15;;;;;;;;;;;;;;;23.19;51.50;101510.03;108520;1264;124159;-80
2023/08/23 06:05:42;;;;;;;;;;;;;;;23.01;52.00;101511.35;108629;1263;65115;-80
2023/08/23 06:08:09;;;;;;;;;;;;;;;22.85;52.36;101514.77;108409;1264;124204;-81
2023/08/23 06:10:35;;;;;;;;;;;;;;;22.70;52.94;101512.84;108540;1263;59164;-80
2023/08/23 06:13:02;;;;;;;;;;;;;;;22.58;53.24;101517.83;108617;1263;59259;-79
2023/08/23 06:15:29;;;;;;;;;;;;;;;22.45;53.55;101511.91;108525;1263;124242;-78
2023/08/23 06:17:55;;;;;;;;;;;;;;;22.31;53.83;101512.06;108626;1263;66276;-78
2023/08/23 06:20:22;;;;;;;;;;;;;;;22.21;54.11;101510.55;108526;1264;124333;-80
2023/08/23 06:22:49;;;;;;;;;;;;;;;22.13;54.37;101512.94;108560;1264;58953;-81
2023/08/23 06:25:18;;;;;;;;;;;;;;;22.06;54.67;101514.64;108464;1263;59127;-79
2023/08/23 06:27:45;;;;;;;;;;;;;;;21.98;55.00;101517.74;108418;1264;124907;-79
2023/08/23 06:30:17;;;;;;;;;;;;;;;21.82;55.07;101516.66;108667;1263;65181;-79
2023/08/23 06:32:45;;;;;;;;;;;;;;;21.68;55.30;101522.14;108524;1263;124381;-79
2023/08/23 06:35:12;;;;;;;;;;;;;;;21.60;55.33;101523.29;108614;1263;58949;-78
2023/08/23 06:37:38;;;;;;;;;;;;;;;21.49;55.77;101520.52;108619;1263;59006;-78
2023/08/23 06:40:05;;;;;;;;;;;;;;;21.48;56.06;101520.52;108535;1263;124154;-80
2023/08/23 06:42:31;;;;;;;;;;;;;;;21.47;56.36;101514.64;108574;1263;65360;-81
2023/08/23 06:44:58;;;;;;;;;;;;;;;21.45;56.63;101514.29;108459;1263;124591;-79
2023/08/23 06:47:24;;;;;;;;;;;;;;;21.43;56.80;101514.81;108577;1263;59170;-80
2023/08/23 06:49:51;;;;;;;;;;;;;;;21.44;56.66;101512.13;108589;1263;59084;-80
2023/08/23 06:52:17;;;;;;;;;;;;;;;21.44;56.63;101506.23;108521;1263;123883;-80
2023/08/23 06:54:47;;;;;;;;;;;;;;;21.42;56.71;101505.89;108672;1263;59050;-80
2023/08/23 06:57:13;;;;;;;;;;;;;;;21.44;57.02;101507.32;108546;1263;124506;-80
2023/08/23 06:59:40;;;;;;;;;;;;;;;21.47;57.04;101506.77;108503;1263;59260;-79
2023/08/23 07:02:06;;;;;;;;;;;;;;;21.48;56.96;101500.17;108476;1269;124217;-81
2023/08/23 07:04:33;;;;;;;;;;;;;;;21.51;57.21;101499.59;108646;1264;74641;-82
2023/08/23 07:06:59;;;;;;;;;;;;;;;21.52;57.16;101496.39;108589;1263;65527;-82
2023/08/23 07:09:26;;;;;;;;;;;;;;;21.52;57.10;101501.04;108576;1263;124375;-82
2023/08/23 07:11:52;;;;;;;;;;;;;;;21.52;57.27;101498.34;108654;1263;59027;-83
2023/08/23 07:14:19;;;;;;;;;;;;;;;21.59;57.29;101499.71;108628;1263;125452;-83
2023/08/23 07:16:45;;;;;;;;;;;;;;;21.64;56.77;101503.42;108691;1263;59749;-83
2023/08/23 07:19:12;;;;;;;;;;;;;;;21.64;56.69;101501.82;108689;1262;64780;-83
2023/08/23 07:21:38;;;;;;;;;;;;;;;21.66;56.66;101505.91;108577;1263;124072;-83
2023/08/23 07:24:05;;;;;;;;;;;;;;;21.70;56.68;101506.05;108543;1263;59001;-82
2023/08/23 07:26:33;;;;;;;;;;;;;;;21.80;56.69;101511.68;108575;1263;124723;-82
2023/08/23 07:29:00;;;;;;;;;;;;;;;21.88;56.43;101511.60;108649;1264;74893;-87
2023/08/23 07:31:26;;;;;;;;;;;;;;;21.91;55.90;101513.53;108609;1263;66068;-84
2023/08/23 07:33:53;;;;;;;;;;;;;;;21.92;55.74;101511.73;108553;1264;124853;-84
2023/08/23 07:36:19;;;;;;;;;;;;;;;21.93;55.79;101512.09;108631;1267;59171;-88
2023/08/23 07:38:46;;;;;;;;;;;;;;;21.97;55.68;101514.55;108449;1264;124316;-91
2023/08/23 07:41:13;;;;;;;;;;;;;;;22.02;55.58;101509.31;108702;1263;73201;-88
2023/08/23 07:43:39;;;;;;;;;;;;;;;22.07;55.37;101512.11;108703;1264;64974;-87
2023/08/23 07:46:07;;;;;;;;;;;;;;;22.13;55.36;101515.27;108500;1263;124363;-87
2023/08/23 07:48:33;;;;;;;;;;;;;;;22.20;55.31;101513.60;108631;1264;59276;-84
2023/08/23 07:51:04;;;;;;;;;;;;;;;22.22;54.61;101517.31;108552;1263;124253;-85
2023/08/23 07:53:31;;;;;;;;;;;;;;;22.23;54.43;101516.76;108704;1263;73390;-84
2023/08/23 07:55:57;;;;;;;;;;;;;;;22.26;54.56;101518.02;108616;1263;65471;-83
2023/08/23 07:58:24;;;;;;;;;;;;;;;22.29;54.24;101516.91;108529;1263;124182;-83
2023/08/23 08:00:51;;;;;;;;;;;;;;;22.31;54.10;101514.56;108496;1263;59282;-83
2023/08/23 08:03:17;;;;;;;;;;;;;;;22.36;53.93;101521.66;108462;1264;124395;-82
2023/08/23 08:05:44;;;;;;;;;;;;;;;22.42;53.80;101518.02;108671;1262;74718;-82
2023/08/23 08:08:10;;;;;;;;;;;;;;;22.48;53.22;101522.07;108558;1264;124396;-84
2023/08/23 08:10:37;;;;;;;;;;;;;;;22.49;52.77;101524.02;108563;1264;72720;-83
2023/08/23 08:13:04;;;;;;;;;;;;;;;22.49;52.23;101523.66;108678;1263;59053;-84
2023/08/23 08:15:31;;;;;;;;;;;;;;;22.54;52.41;101523.96;108557;1263;124139;-83
2023/08/23 08:17:58;;;;;;;;;;;;;;;22.58;52.16;101526.40;108616;1263;73769;-94
2023/08/23 08:20:24;;;;;;;;;;;;;;;22.58;51.89;101526.23;108699;1263;124576;-90
2023/08/23 08:22:51;;;;;;;;;;;;;;;22.59;51.83;101526.04;108695;1263;72568;-90
2023/08/23 08:25:18;;;;;;;;;;;;;;;22.64;51.69;101526.52;108646;1262;59021;-93
2023/08/23 08:27:44;;;;;;;;;;;;;;;22.67;51.62;101524.67;108551;1263;124631;-92
2023/08/23 08:30:11;;;;;;;;;;;;;;;22.73;51.40;101526.41;108705;1264;73242;-89
2023/08/23 08:32:37;;;;;;;;;;;;;;;22.74;50.79;101524.06;108635;1263;124310;-91
2023/08/23 08:35:04;;;;;;;;;;;;;;;22.76;50.91;101524.03;108644;1263;71369;-91
2023/08/23 08:37:31;;;;;;;;;;;;;;;22.81;51.24;101523.08;108690;1263;59112;-90
2023/08/23 08:39:57;;;;;;;;;;;;;;;22.86;51.10;101522.10;108530;1264;123223;-91
2023/08/23 08:42:24;;;;;;;;;;;;;;;22.89;50.97;101525.64;108696;1263;73373;-89
2023/08/23 08:44:50;;;;;;;;;;;;;;;22.92;50.78;101519.34;108486;1264;124323;-90
2023/08/23 08:47:17;;;;;;;;;;;;;;;22.94;50.73;101522.00;108678;1264;71389;-91
2023/08/23 08:49:44;;;;;;;;;;;;;;;22.94;50.25;101526.11;108675;1263;59104;-90
2023/08/23 08:52:11;;;;;;;;;;;;;;;22.94;50.12;101523.60;108676;1262;122903;-91
2023/08/23 08:54:38;;;;;;;;;;;;;;;22.96;50.19;101522.68;108574;1264;74754;-83
2023/08/23 08:57:05;;;;;;;;;;;;;;;22.99;50.22;101520.50;108527;1269;124660;-85
2023/08/23 08:59:31;;;;;;;;;;;;;;;23.04;50.24;101519.02;108603;1263;73170;-84
2023/08/23 09:01:58;;;;;;;;;;;;;;;23.06;49.63;101517.55;108526;1269;59160;-84
2023/08/23 09:04:24;;;;;;;;;;;;;;;23.06;49.65;101519.17;108605;1263;124967;-85
2023/08/23 09:06:51;;;;;;;;;;;;;;;23.05;49.46;101518.11;108699;1264;59634;-84
2023/08/23 09:09:18;;;;;;;;;;;;;;;23.07;49.73;101514.14;108504;1263;124971;-84
2023/08/23 09:11:44;;;;;;;;;;;;;;;23.13;49.83;101515.85;108550;1263;73089;-83
2023/08/23 09:14:14;;;;;;;;;;;;;;;23.21;50.09;101515.55;108550;1264;124257;-83
2023/08/23 09:16:41;;;;;;;;;;;;;;;23.27;49.82;101512.42;108696;1263;58985;-82
2023/08/23 09:19:09;;;;;;;;;;;;;;;23.28;49.31;101511.14;108628;1264;74502;-83
2023/08/23 09:21:35;;;;;;;;;;;;;;;23.27;49.04;101509.91;108413;1263;124445;-83
2023/08/23 09:24:04;;;;;;;;;;;;;;;23.26;49.10;101512.23;108663;1264;72772;-82
2023/08/23 09:26:30;;;;;;;;;;;;;;;23.25;49.06;101510.29;108533;1263;124516;-83
2023/08/23 09:28:57;;;;;;;;;;;;;;;23.27;48.92;101506.87;108647;1264;59010;-83
2023/08/23 09:31:23;;;;;;;;;;;;;;;23.28;49.01;101504.52;108650;1264;58942;-83
2023/08/23 09:33:50;;;;;;;;;;;;;;;23.31;48.99;101505.73;108601;1263;122946;-84
2023/08/23 09:36:40;;;;;;;;;;;;;;;23.38;49.12;101507.23;108660;1263;72729;-83
2023/08/23 09:39:08;;;;;;;;;;;;;;;23.44;48.97;101504.09;108494;1264;124063;-83
2023/08/23 09:41:38;;;;;;;;;;;;;;;23.53;48.70;101512.70;108601;1263;60223;-83
2023/08/23 09:44:05;;;;;;;;;;;;;;;23.59;48.58;101513.69;108530;1263;124732;-83
2023/08/23 09:46:35;;;;;;;;;;;;;;;23.66;48.81;101512.67;108590;1263;67454;-84
2023/08/23 09:49:05;;;;;;;;;;;;;;;23.75;48.61;101510.38;108623;1263;71288;-83
2023/08/23 09:51:34;;;;;;;;;;;;;;;23.83;48.08;101510.42;108470;1263;124135;-84
2023/08/23 09:54:09;;;;;;;;;;;;;;;23.87;48.00;101511.25;108666;1264;59493;-84
2023/08/23 09:56:36;;;;;;;;;;;;;;;23.95;47.90;101512.18;108459;1264;124322;-83
2023/08/23 09:59:02;;;;;;;;;;;;;;;24.07;47.94;101509.28;108648;1263;66626;-83
2023/08/23 10:01:29;;;;;;;;;;;;;;;24.19;47.63;101506.00;108661;1263;72471;-83
2023/08/23 10:03:55;;;;;;;;;;;;;;;24.31;47.61;101504.51;108439;1267;124853;-83
2023/08/23 10:06:22;;;;;;;;;;;;;;;24.43;47.87;101503.19;108588;1263;59150;-83
2023/08/23 10:08:48;;;;;;;;;;;;;;;24.52;47.28;101510.56;108454;1263;125018;-83
2023/08/23 10:11:17;;;;;;;;;;;;;;;24.53;46.71;101512.54;108553;1263;66821;-83
2023/08/23 10:13:43;;;;;;;;;;;;;;;24.51;46.34;101511.65;108566;1264;73634;-82
2023/08/23 10:16:12;;;;;;;;;;;;;;;24.51;46.52;101505.71;108450;1263;123303;-83
2023/08/23 10:18:38;;;;;;;;;;;;;;;24.56;46.61;101507.79;108647;1264;59077;-82
2023/08/23 10:21:05;;;;;;;;;;;;;;;24.64;46.56;101503.67;108478;1264;124948;-83
2023/08/23 10:23:36;;;;;;;;;;;;;;;24.73;46.35;101503.67;108646;1264;59176;-83
2023/08/23 10:26:02;;;;;;;;;;;;;;;24.80;45.81;101506.02;108413;1263;124278;-82
2023/08/23 10:28:29;;;;;;;;;;;;;;;24.85;45.49;101503.38;108648;1263;59215;-83
2023/08/23 10:30:57;;;;;;;;;;;;;;;24.89;45.52;101498.83;108538;1263;59523;-83
2023/08/23 10:33:24;;;;;;;;;;;;;;;24.94;45.34;101502.83;108445;1263;124895;-83
2023/08/23 10:35:51;;;;;;;;;;;;;;;24.98;45.16;101500.93;108547;1264;65920;-83
2023/08/23 10:38:17;;;;;;;;;;;;;;;24.99;45.08;101498.58;108533;1263;125989;-83
2023/08/23 10:40:45;;;;;;;;;;;;;;;25.00;45.10;101501.25;108633;1264;59321;-85
2023/08/23 10:43:16;;;;;;;;;;;;;;;25.05;44.93;101501.86;108667;1262;59004;-84
2023/08/23 10:45:50;;;;;;;;;;;;;;;25.12;44.79;101502.80;108571;1263;125504;-84
2023/08/23 10:48:20;;;;;;;;;;;;;;;25.15;44.72;101500.18;108640;1264;66252;-83
2023/08/23 10:50:47;;;;;;;;;;;;;;;25.23;44.40;101495.88;108574;1263;124879;-83
2023/08/23 10:53:17;;;;;;;;;;;;;;;25.33;44.25;101494.75;108498;1263;59096;-83
2023/08/23 10:55:44;;;;;;;;;;;;;;;25.48;44.01;101489.90;108591;1264;58891;-84
2023/08/23 10:58:12;;;;;;;;;;;;;;;25.62;43.83;101483.25;108495;1267;124325;-83
2023/08/23 11:00:39;;;;;;;;;;;;;;;25.73;43.16;101486.74;108667;1264;65351;-84
2023/08/23 11:03:06;;;;;;;;;;;;;;;25.80;43.21;101480.59;108533;1264;124448;-83
2023/08/23 11:05:32;;;;;;;;;;;;;;;25.88;42.97;101477.00;108532;1263;59033;-83
2023/08/23 11:07:59;;;;;;;;;;;;;;;25.93;42.77;101476.88;108673;1262;60045;-83
2023/08/23 11:10:25;;;;;;;;;;;;;;;26.02;42.76;101475.02;108561;1263;124029;-83
2023/08/23 11:12:52;;;;;;;;;;;;;;;26.12;42.34;101475.63;108617;1263;66412;-83
2023/08/23 11:15:21;;;;;;;;;;;;;;;26.13;42.25;101477.77;108562;1263;124317;-84
2023/08/23 11:17:48;;;;;;;;;;;;;;;26.06;42.20;101474.92;108656;1263;59209;-83
2023/08/23 11:20:15;;;;;;;;;;;;;;;26.17;42.51;101483.60;108545;1263;125313;-83
2023/08/23 11:22:42;;;;;;;;;;;;;;;26.35;42.40;101484.15;108669;1263;73078;-85
2023/08/23 11:25:09;;;;;;;;;;;;;;;26.49;42.07;101482.83;108697;1263;64808;-84
2023/08/23 11:27:35;;;;;;;;;;;;;;;26.56;41.89;101483.91;108453;1263;125028;-84
2023/08/23 11:30:02;;;;;;;;;;;;;;;26.54;41.54;101488.11;108526;1264;58979;-83
2023/08/23 11:32:29;;;;;;;;;;;;;;;26.47;41.63;101480.02;108581;1264;124317;-84
2023/08/23 11:34:56;;;;;;;;;;;;;;;26.52;41.63;101484.55;108559;1263;74694;-84
2023/08/23 11:37:25;;;;;;;;;;;;;;;26.54;41.16;101483.22;108660;1264;65396;-84
2023/08/23 11:39:55;;;;;;;;;;;;;;;26.56;41.04;101475.78;108525;1264;124468;-84
2023/08/23 11:42:22;;;;;;;;;;;;;;;26.69;41.02;101479.23;108662;1263;59117;-84
2023/08/23 11:44:48;;;;;;;;;;;;;;;26.81;40.99;101479.56;108358;1263;256239;-83
2023/08/23 11:47:15;;;;;;;;;;;;;;;26.86;40.62;101479.94;108533;1264;59029;-84
2023/08/23 11:49:42;;;;;;;;;;;;;;;26.88;40.55;101482.21;108685;1263;58925;-84
2023/08/23 11:52:08;;;;;;;;;;;;;;;26.87;40.65;101478.66;108462;1264;126062;-84
2023/08/23 11:54:35;;;;;;;;;;;;;;;26.80;40.40;101478.35;108566;1263;59030;-84
2023/08/23 11:57:01;;;;;;;;;;;;;;;26.74;40.46;101477.81;108474;1263;124448;-86
2023/08/23 11:59:28;;;;;;;;;;;;;;;26.61;40.57;101476.76;108593;1264;74757;-85
2023/08/23 12:01:54;;;;;;;;;;;;;;;26.42;40.42;101478.73;108648;1263;59066;-85
2023/08/23 12:04:22;;;;;;;;;;;;;;;26.24;40.26;101474.60;108570;1263;123918;-85
2023/08/23 12:06:48;;;;;;;;;;;;;;;26.16;40.57;101470.84;108638;1263;58988;-85
2023/08/23 12:09:15;;;;;;;;;;;;;;;26.14;40.75;101470.16;108592;1263;124112;-85
2023/08/23 12:11:41;;;;;;;;;;;;;;;26.14;41.91;101466.05;108632;1264;74707;-85
2023/08/23 12:14:08;;;;;;;;;;;;;;;26.17;42.60;101463.44;108425;1264;124347;-85
2023/08/23 12:16:34;;;;;;;;;;;;;;;26.25;42.75;101459.05;108623;1264;58995;-85
2023/08/23 12:19:01;;;;;;;;;;;;;;;26.40;42.89;101454.66;108578;1265;59110;-85
2023/08/23 12:21:27;;;;;;;;;;;;;;;26.65;42.77;101446.55;108565;1263;124505;-85